sensor_id;sensor_type;location;lat;lon;timestamp;P1;durP1;ratioP1;P2;durP2;ratioP2
12151;SDS011;6139;51.274;7.128;2023-08-07T00:00:44;1.83;;;1.40;;
12151;SDS011;6139;51.274;7.128;2023-08-07T00:01:45;2.72;;;1.70;;
12151;SDS011;6139;51.274;7.128;2023-08-07T00:02:47;4.38;;;1.52;;
12151;SDS011;6139;51.274;7.128;2023-08-07T00:03:49;3.50;;;1.70;;
12151;SDS011;6139;51.274;7.128;2023-08-07T00:04:49;4.60;;;1.50;;
12151;SDS011;6139;51.274;7.128;2023-08-07T00:05:51;1.83;;;1.50;;
12151;SDS011;6139;51.274;7.128;2023-08-07T00:06:54;1.67;;;1.58;;
12151;SDS011;6139;51.274;7.128;2023-08-07T00:07:56;1.88;;;1.48;;
12151;SDS011;6139;51.274;7.128;2023-08-07T00:08:57;3.10;;;1.58;;
12151;SDS011;6139;51.274;7.128;2023-08-07T00:09:59;2.90;;;1.45;;
12151;SDS011;6139;51.274;7.128;2023-08-07T00:11:05;3.75;;;1.48;;
12151;SDS011;6139;51.274;7.128;2023-08-07T00:12:07;1.85;;;1.70;;
12151;SDS011;6139;51.274;7.128;2023-08-07T00:13:11;1.55;;;1.33;;
12151;SDS011;6139;51.274;7.128;2023-08-07T00:14:12;2.50;;;1.42;;
12151;SDS011;6139;51.274;7.128;2023-08-07T00:15:14;2.65;;;1.33;;
12151;SDS011;6139;51.274;7.128;2023-08-07T00:16:15;1.55;;;1.38;;
12151;SDS011;6139;51.274;7.128;2023-08-07T00:17:17;2.28;;;1.55;;
12151;SDS011;6139;51.274;7.128;2023-08-07T00:18:18;2.80;;;1.40;;
12151;SDS011;6139;51.274;7.128;2023-08-07T00:19:20;2.90;;;1.60;;
12151;SDS011;6139;51.274;7.128;2023-08-07T00:20:21;3.38;;;1.67;;
12151;SDS011;6139;51.274;7.128;2023-08-07T00:21:23;1.95;;;1.55;;
12151;SDS011;6139;51.274;7.128;2023-08-07T00:22:26;2.08;;;1.45;;
12151;SDS011;6139;51.274;7.128;2023-08-07T00:23:30;1.83;;;1.70;;
12151;SDS011;6139;51.274;7.128;2023-08-07T00:24:31;2.72;;;1.90;;
12151;SDS011;6139;51.274;7.128;2023-08-07T00:25:33;1.73;;;1.63;;
12151;SDS011;6139;51.274;7.128;2023-08-07T00:26:34;2.25;;;1.52;;
12151;SDS011;6139;51.274;7.128;2023-08-07T00:27:36;3.17;;;1.60;;
12151;SDS011;6139;51.274;7.128;2023-08-07T00:28:37;2.80;;;1.85;;
12151;SDS011;6139;51.274;7.128;2023-08-07T00:29:39;2.15;;;1.95;;
12151;SDS011;6139;51.274;7.128;2023-08-07T00:30:40;3.30;;;2.10;;
12151;SDS011;6139;51.274;7.128;2023-08-07T00:31:42;3.72;;;2.00;;
12151;SDS011;6139;51.274;7.128;2023-08-07T00:32:43;4.18;;;2.17;;
12151;SDS011;6139;51.274;7.128;2023-08-07T00:33:45;2.78;;;2.47;;
12151;SDS011;6139;51.274;7.128;2023-08-07T00:34:47;2.90;;;2.30;;
12151;SDS011;6139;51.274;7.128;2023-08-07T00:35:49;4.22;;;2.33;;
12151;SDS011;6139;51.274;7.128;2023-08-07T00:36:50;2.40;;;2.20;;
12151;SDS011;6139;51.274;7.128;2023-08-07T00:37:53;3.20;;;2.13;;
12151;SDS011;6139;51.274;7.128;2023-08-07T00:38:55;3.25;;;2.20;;
12151;SDS011;6139;51.274;7.128;2023-08-07T00:39:57;3.65;;;2.35;;
12151;SDS011;6139;51.274;7.128;2023-08-07T00:40:58;4.82;;;2.53;;
12151;SDS011;6139;51.274;7.128;2023-08-07T00:42:00;4.22;;;2.25;;
12151;SDS011;6139;51.274;7.128;2023-08-07T00:43:01;4.18;;;3.05;;
12151;SDS011;6139;51.274;7.128;2023-08-07T00:44:06;4.75;;;2.70;;
12151;SDS011;6139;51.274;7.128;2023-08-07T00:45:08;5.65;;;3.05;;
12151;SDS011;6139;51.274;7.128;2023-08-07T00:46:11;7.43;;;2.83;;
12151;SDS011;6139;51.274;7.128;2023-08-07T00:47:12;7.43;;;3.22;;
12151;SDS011;6139;51.274;7.128;2023-08-07T00:48:14;3.95;;;2.92;;
12151;SDS011;6139;51.274;7.128;2023-08-07T00:49:16;7.13;;;3.42;;
12151;SDS011;6139;51.274;7.128;2023-08-07T00:50:20;3.03;;;2.60;;
12151;SDS011;6139;51.274;7.128;2023-08-07T00:51:21;5.80;;;3.30;;
12151;SDS011;6139;51.274;7.128;2023-08-07T00:52:24;5.78;;;3.05;;
12151;SDS011;6139;51.274;7.128;2023-08-07T00:53:27;4.30;;;2.95;;
12151;SDS011;6139;51.274;7.128;2023-08-07T00:54:32;3.75;;;3.17;;
12151;SDS011;6139;51.274;7.128;2023-08-07T00:55:34;5.03;;;2.65;;
12151;SDS011;6139;51.274;7.128;2023-08-07T00:56:36;5.22;;;2.85;;
12151;SDS011;6139;51.274;7.128;2023-08-07T00:57:38;5.47;;;2.85;;
12151;SDS011;6139;51.274;7.128;2023-08-07T00:58:39;4.88;;;3.15;;
12151;SDS011;6139;51.274;7.128;2023-08-07T00:59:42;5.57;;;2.65;;
12151;SDS011;6139;51.274;7.128;2023-08-07T01:00:44;5.35;;;3.08;;
12151;SDS011;6139;51.274;7.128;2023-08-07T01:01:46;7.32;;;2.60;;
12151;SDS011;6139;51.274;7.128;2023-08-07T01:02:48;4.50;;;2.70;;
12151;SDS011;6139;51.274;7.128;2023-08-07T01:03:52;3.05;;;2.28;;
12151;SDS011;6139;51.274;7.128;2023-08-07T01:05:01;7.65;;;3.35;;
12151;SDS011;6139;51.274;7.128;2023-08-07T01:06:04;5.75;;;2.75;;
12151;SDS011;6139;51.274;7.128;2023-08-07T01:07:05;4.38;;;2.95;;
12151;SDS011;6139;51.274;7.128;2023-08-07T01:08:07;6.20;;;2.95;;
12151;SDS011;6139;51.274;7.128;2023-08-07T01:09:09;5.72;;;2.85;;
12151;SDS011;6139;51.274;7.128;2023-08-07T01:10:11;7.30;;;3.17;;
12151;SDS011;6139;51.274;7.128;2023-08-07T01:11:16;4.72;;;2.80;;
12151;SDS011;6139;51.274;7.128;2023-08-07T01:12:29;5.38;;;2.90;;
12151;SDS011;6139;51.274;7.128;2023-08-07T01:13:34;7.70;;;2.90;;
12151;SDS011;6139;51.274;7.128;2023-08-07T01:14:40;4.70;;;2.50;;
12151;SDS011;6139;51.274;7.128;2023-08-07T01:15:48;4.40;;;3.15;;
12151;SDS011;6139;51.274;7.128;2023-08-07T01:16:55;6.32;;;3.15;;
12151;SDS011;6139;51.274;7.128;2023-08-07T01:18:04;3.85;;;2.85;;
12151;SDS011;6139;51.274;7.128;2023-08-07T01:19:11;7.22;;;2.63;;
12151;SDS011;6139;51.274;7.128;2023-08-07T01:20:20;5.45;;;2.70;;
12151;SDS011;6139;51.274;7.128;2023-08-07T01:21:22;3.72;;;2.50;;
12151;SDS011;6139;51.274;7.128;2023-08-07T01:22:25;4.18;;;2.28;;
12151;SDS011;6139;51.274;7.128;2023-08-07T01:23:27;5.15;;;2.40;;
12151;SDS011;6139;51.274;7.128;2023-08-07T01:24:28;4.00;;;2.28;;
12151;SDS011;6139;51.274;7.128;2023-08-07T01:25:29;5.32;;;2.47;;
12151;SDS011;6139;51.274;7.128;2023-08-07T01:26:31;5.20;;;2.10;;
12151;SDS011;6139;51.274;7.128;2023-08-07T01:27:35;4.85;;;2.30;;
12151;SDS011;6139;51.274;7.128;2023-08-07T01:28:40;5.90;;;2.40;;
12151;SDS011;6139;51.274;7.128;2023-08-07T01:29:48;5.85;;;2.45;;
12151;SDS011;6139;51.274;7.128;2023-08-07T01:30:58;3.30;;;1.80;;
12151;SDS011;6139;51.274;7.128;2023-08-07T01:32:03;3.47;;;1.95;;
12151;SDS011;6139;51.274;7.128;2023-08-07T01:33:09;2.78;;;1.50;;
12151;SDS011;6139;51.274;7.128;2023-08-07T01:34:17;3.58;;;1.65;;
12151;SDS011;6139;51.274;7.128;2023-08-07T01:35:22;6.90;;;2.38;;
12151;SDS011;6139;51.274;7.128;2023-08-07T01:36:26;4.97;;;1.60;;
12151;SDS011;6139;51.274;7.128;2023-08-07T01:37:34;4.05;;;1.63;;
12151;SDS011;6139;51.274;7.128;2023-08-07T01:38:38;4.53;;;1.83;;
12151;SDS011;6139;51.274;7.128;2023-08-07T01:39:41;3.70;;;1.70;;
12151;SDS011;6139;51.274;7.128;2023-08-07T01:40:44;4.05;;;1.75;;
12151;SDS011;6139;51.274;7.128;2023-08-07T01:41:47;2.75;;;1.63;;
12151;SDS011;6139;51.274;7.128;2023-08-07T01:42:49;2.40;;;1.40;;
12151;SDS011;6139;51.274;7.128;2023-08-07T01:43:51;4.57;;;1.83;;
12151;SDS011;6139;51.274;7.128;2023-08-07T01:44:52;4.18;;;1.70;;
12151;SDS011;6139;51.274;7.128;2023-08-07T01:45:54;1.73;;;1.55;;
12151;SDS011;6139;51.274;7.128;2023-08-07T01:46:55;4.03;;;1.73;;
12151;SDS011;6139;51.274;7.128;2023-08-07T01:47:57;2.53;;;1.48;;
12151;SDS011;6139;51.274;7.128;2023-08-07T01:49:01;3.92;;;1.52;;
12151;SDS011;6139;51.274;7.128;2023-08-07T01:50:03;3.53;;;1.75;;
12151;SDS011;6139;51.274;7.128;2023-08-07T01:51:04;2.78;;;1.60;;
12151;SDS011;6139;51.274;7.128;2023-08-07T01:52:07;3.58;;;1.58;;
12151;SDS011;6139;51.274;7.128;2023-08-07T01:53:10;1.63;;;1.52;;
12151;SDS011;6139;51.274;7.128;2023-08-07T01:54:12;2.08;;;1.40;;
12151;SDS011;6139;51.274;7.128;2023-08-07T01:55:14;2.97;;;1.50;;
12151;SDS011;6139;51.274;7.128;2023-08-07T01:56:26;3.63;;;1.58;;
12151;SDS011;6139;51.274;7.128;2023-08-07T01:57:27;6.65;;;1.90;;
12151;SDS011;6139;51.274;7.128;2023-08-07T01:58:28;1.58;;;1.45;;
12151;SDS011;6139;51.274;7.128;2023-08-07T01:59:30;3.28;;;1.65;;
12151;SDS011;6139;51.274;7.128;2023-08-07T02:00:32;3.10;;;1.95;;
12151;SDS011;6139;51.274;7.128;2023-08-07T02:01:33;3.35;;;1.50;;
12151;SDS011;6139;51.274;7.128;2023-08-07T02:02:35;4.57;;;1.85;;
12151;SDS011;6139;51.274;7.128;2023-08-07T02:03:36;3.13;;;1.75;;
12151;SDS011;6139;51.274;7.128;2023-08-07T02:04:38;3.45;;;1.70;;
12151;SDS011;6139;51.274;7.128;2023-08-07T02:05:39;5.13;;;1.60;;
12151;SDS011;6139;51.274;7.128;2023-08-07T02:06:41;3.28;;;1.70;;
12151;SDS011;6139;51.274;7.128;2023-08-07T02:07:42;2.83;;;1.80;;
12151;SDS011;6139;51.274;7.128;2023-08-07T02:08:48;4.10;;;1.85;;
12151;SDS011;6139;51.274;7.128;2023-08-07T02:09:49;2.15;;;1.75;;
12151;SDS011;6139;51.274;7.128;2023-08-07T02:10:51;3.20;;;1.92;;
12151;SDS011;6139;51.274;7.128;2023-08-07T02:11:53;2.45;;;1.70;;
12151;SDS011;6139;51.274;7.128;2023-08-07T02:12:56;3.45;;;1.92;;
12151;SDS011;6139;51.274;7.128;2023-08-07T02:13:58;3.20;;;1.80;;
12151;SDS011;6139;51.274;7.128;2023-08-07T02:15:00;3.55;;;1.85;;
12151;SDS011;6139;51.274;7.128;2023-08-07T02:16:01;5.63;;;1.80;;
12151;SDS011;6139;51.274;7.128;2023-08-07T02:17:06;3.15;;;2.00;;
12151;SDS011;6139;51.274;7.128;2023-08-07T02:18:07;3.65;;;2.10;;
12151;SDS011;6139;51.274;7.128;2023-08-07T02:19:09;4.38;;;1.88;;
12151;SDS011;6139;51.274;7.128;2023-08-07T02:20:10;2.30;;;1.60;;
12151;SDS011;6139;51.274;7.128;2023-08-07T02:21:12;3.50;;;2.13;;
12151;SDS011;6139;51.274;7.128;2023-08-07T02:22:13;5.03;;;1.52;;
12151;SDS011;6139;51.274;7.128;2023-08-07T02:23:16;2.90;;;1.83;;
12151;SDS011;6139;51.274;7.128;2023-08-07T02:24:18;3.70;;;1.70;;
12151;SDS011;6139;51.274;7.128;2023-08-07T02:25:20;4.20;;;1.95;;
12151;SDS011;6139;51.274;7.128;2023-08-07T02:26:21;3.10;;;1.85;;
12151;SDS011;6139;51.274;7.128;2023-08-07T02:27:23;3.03;;;1.70;;
12151;SDS011;6139;51.274;7.128;2023-08-07T02:28:24;2.42;;;1.48;;
12151;SDS011;6139;51.274;7.128;2023-08-07T02:29:26;4.10;;;1.85;;
12151;SDS011;6139;51.274;7.128;2023-08-07T02:30:27;3.83;;;1.95;;
12151;SDS011;6139;51.274;7.128;2023-08-07T02:31:29;2.97;;;1.80;;
12151;SDS011;6139;51.274;7.128;2023-08-07T02:32:30;2.30;;;1.60;;
12151;SDS011;6139;51.274;7.128;2023-08-07T02:33:32;2.22;;;1.80;;
12151;SDS011;6139;51.274;7.128;2023-08-07T02:34:33;1.70;;;1.60;;
12151;SDS011;6139;51.274;7.128;2023-08-07T02:35:35;2.40;;;1.55;;
12151;SDS011;6139;51.274;7.128;2023-08-07T02:36:36;1.95;;;1.67;;
12151;SDS011;6139;51.274;7.128;2023-08-07T02:37:39;3.45;;;1.90;;
12151;SDS011;6139;51.274;7.128;2023-08-07T02:38:40;3.97;;;1.70;;
12151;SDS011;6139;51.274;7.128;2023-08-07T02:39:43;2.50;;;1.60;;
12151;SDS011;6139;51.274;7.128;2023-08-07T02:40:44;3.28;;;1.75;;
12151;SDS011;6139;51.274;7.128;2023-08-07T02:41:46;3.80;;;1.80;;
12151;SDS011;6139;51.274;7.128;2023-08-07T02:42:47;2.25;;;1.60;;
12151;SDS011;6139;51.274;7.128;2023-08-07T02:43:49;2.33;;;1.70;;
12151;SDS011;6139;51.274;7.128;2023-08-07T02:44:50;3.17;;;1.58;;
12151;SDS011;6139;51.274;7.128;2023-08-07T02:45:52;2.55;;;1.63;;
12151;SDS011;6139;51.274;7.128;2023-08-07T02:46:53;2.88;;;1.85;;
12151;SDS011;6139;51.274;7.128;2023-08-07T02:47:55;3.35;;;1.40;;
12151;SDS011;6139;51.274;7.128;2023-08-07T02:48:56;3.38;;;2.20;;
12151;SDS011;6139;51.274;7.128;2023-08-07T02:49:58;2.97;;;1.90;;
12151;SDS011;6139;51.274;7.128;2023-08-07T02:50:59;3.10;;;1.90;;
12151;SDS011;6139;51.274;7.128;2023-08-07T02:52:01;3.08;;;1.67;;
12151;SDS011;6139;51.274;7.128;2023-08-07T02:53:03;1.58;;;1.40;;
12151;SDS011;6139;51.274;7.128;2023-08-07T02:54:05;2.83;;;1.85;;
12151;SDS011;6139;51.274;7.128;2023-08-07T02:55:10;3.28;;;1.67;;
12151;SDS011;6139;51.274;7.128;2023-08-07T02:56:12;2.90;;;1.80;;
12151;SDS011;6139;51.274;7.128;2023-08-07T02:57:13;3.40;;;1.80;;
12151;SDS011;6139;51.274;7.128;2023-08-07T02:58:15;2.70;;;1.73;;
12151;SDS011;6139;51.274;7.128;2023-08-07T02:59:16;3.35;;;1.88;;
12151;SDS011;6139;51.274;7.128;2023-08-07T03:00:18;3.60;;;2.00;;
12151;SDS011;6139;51.274;7.128;2023-08-07T03:01:20;3.10;;;2.22;;
12151;SDS011;6139;51.274;7.128;2023-08-07T03:02:22;4.47;;;2.15;;
12151;SDS011;6139;51.274;7.128;2023-08-07T03:03:23;2.53;;;1.88;;
12151;SDS011;6139;51.274;7.128;2023-08-07T03:04:24;2.67;;;2.17;;
12151;SDS011;6139;51.274;7.128;2023-08-07T03:05:26;2.03;;;1.83;;
12151;SDS011;6139;51.274;7.128;2023-08-07T03:06:27;2.72;;;2.05;;
12151;SDS011;6139;51.274;7.128;2023-08-07T03:07:29;3.15;;;1.75;;
12151;SDS011;6139;51.274;7.128;2023-08-07T03:08:30;2.00;;;1.80;;
12151;SDS011;6139;51.274;7.128;2023-08-07T03:09:32;3.58;;;2.10;;
12151;SDS011;6139;51.274;7.128;2023-08-07T03:10:34;2.25;;;1.80;;
12151;SDS011;6139;51.274;7.128;2023-08-07T03:11:36;2.00;;;1.80;;
12151;SDS011;6139;51.274;7.128;2023-08-07T03:12:37;4.00;;;1.77;;
12151;SDS011;6139;51.274;7.128;2023-08-07T03:13:39;2.70;;;1.80;;
12151;SDS011;6139;51.274;7.128;2023-08-07T03:14:40;3.50;;;2.10;;
12151;SDS011;6139;51.274;7.128;2023-08-07T03:15:42;6.43;;;2.20;;
12151;SDS011;6139;51.274;7.128;2023-08-07T03:16:44;2.92;;;2.10;;
12151;SDS011;6139;51.274;7.128;2023-08-07T03:17:46;3.00;;;1.90;;
12151;SDS011;6139;51.274;7.128;2023-08-07T03:18:47;2.45;;;1.80;;
12151;SDS011;6139;51.274;7.128;2023-08-07T03:19:48;3.58;;;1.80;;
12151;SDS011;6139;51.274;7.128;2023-08-07T03:20:50;2.90;;;2.00;;
12151;SDS011;6139;51.274;7.128;2023-08-07T03:21:51;3.10;;;2.13;;
12151;SDS011;6139;51.274;7.128;2023-08-07T03:22:53;2.60;;;2.38;;
12151;SDS011;6139;51.274;7.128;2023-08-07T03:23:57;3.30;;;2.80;;
12151;SDS011;6139;51.274;7.128;2023-08-07T03:24:59;3.05;;;2.53;;
12151;SDS011;6139;51.274;7.128;2023-08-07T03:26:04;3.88;;;2.47;;
12151;SDS011;6139;51.274;7.128;2023-08-07T03:27:08;3.22;;;2.75;;
12151;SDS011;6139;51.274;7.128;2023-08-07T03:28:09;3.33;;;2.85;;
12151;SDS011;6139;51.274;7.128;2023-08-07T03:29:11;3.28;;;2.67;;
12151;SDS011;6139;51.274;7.128;2023-08-07T03:30:12;6.10;;;3.10;;
12151;SDS011;6139;51.274;7.128;2023-08-07T03:31:14;4.25;;;2.92;;
12151;SDS011;6139;51.274;7.128;2023-08-07T03:32:15;3.63;;;2.47;;
12151;SDS011;6139;51.274;7.128;2023-08-07T03:33:17;5.60;;;3.33;;
12151;SDS011;6139;51.274;7.128;2023-08-07T03:34:18;4.70;;;2.80;;
12151;SDS011;6139;51.274;7.128;2023-08-07T03:35:21;4.60;;;3.03;;
12151;SDS011;6139;51.274;7.128;2023-08-07T03:36:22;5.30;;;3.40;;
12151;SDS011;6139;51.274;7.128;2023-08-07T03:37:26;4.40;;;2.88;;
12151;SDS011;6139;51.274;7.128;2023-08-07T03:38:27;4.43;;;2.60;;
12151;SDS011;6139;51.274;7.128;2023-08-07T03:39:31;6.30;;;2.75;;
12151;SDS011;6139;51.274;7.128;2023-08-07T03:40:32;5.32;;;2.80;;
12151;SDS011;6139;51.274;7.128;2023-08-07T03:41:35;4.55;;;2.85;;
12151;SDS011;6139;51.274;7.128;2023-08-07T03:42:37;5.00;;;2.50;;
12151;SDS011;6139;51.274;7.128;2023-08-07T03:43:39;3.30;;;2.30;;
12151;SDS011;6139;51.274;7.128;2023-08-07T03:44:40;4.13;;;2.60;;
12151;SDS011;6139;51.274;7.128;2023-08-07T03:45:42;3.75;;;2.40;;
12151;SDS011;6139;51.274;7.128;2023-08-07T03:46:43;4.82;;;2.40;;
12151;SDS011;6139;51.274;7.128;2023-08-07T03:47:45;6.28;;;2.70;;
12151;SDS011;6139;51.274;7.128;2023-08-07T03:48:46;6.30;;;2.80;;
12151;SDS011;6139;51.274;7.128;2023-08-07T03:49:51;5.53;;;3.35;;
12151;SDS011;6139;51.274;7.128;2023-08-07T03:50:52;5.32;;;2.85;;
12151;SDS011;6139;51.274;7.128;2023-08-07T03:51:54;5.45;;;2.50;;
12151;SDS011;6139;51.274;7.128;2023-08-07T03:52:56;6.13;;;2.70;;
12151;SDS011;6139;51.274;7.128;2023-08-07T03:53:58;3.92;;;2.95;;
12151;SDS011;6139;51.274;7.128;2023-08-07T03:55:00;6.97;;;3.00;;
12151;SDS011;6139;51.274;7.128;2023-08-07T03:56:03;4.70;;;3.25;;
12151;SDS011;6139;51.274;7.128;2023-08-07T03:57:06;6.53;;;3.00;;
12151;SDS011;6139;51.274;7.128;2023-08-07T03:58:09;5.55;;;3.38;;
12151;SDS011;6139;51.274;7.128;2023-08-07T03:59:10;5.53;;;3.58;;
12151;SDS011;6139;51.274;7.128;2023-08-07T04:00:12;9.05;;;4.05;;
12151;SDS011;6139;51.274;7.128;2023-08-07T04:01:13;7.60;;;3.63;;
12151;SDS011;6139;51.274;7.128;2023-08-07T04:02:15;8.13;;;3.80;;
12151;SDS011;6139;51.274;7.128;2023-08-07T04:03:16;9.18;;;4.13;;
12151;SDS011;6139;51.274;7.128;2023-08-07T04:04:18;9.60;;;4.05;;
12151;SDS011;6139;51.274;7.128;2023-08-07T04:05:19;8.07;;;4.32;;
12151;SDS011;6139;51.274;7.128;2023-08-07T04:06:21;4.65;;;3.50;;
12151;SDS011;6139;51.274;7.128;2023-08-07T04:07:22;10.00;;;4.00;;
12151;SDS011;6139;51.274;7.128;2023-08-07T04:08:24;7.03;;;4.13;;
12151;SDS011;6139;51.274;7.128;2023-08-07T04:09:25;5.88;;;3.90;;
12151;SDS011;6139;51.274;7.128;2023-08-07T04:10:30;8.65;;;3.85;;
12151;SDS011;6139;51.274;7.128;2023-08-07T04:11:31;7.03;;;4.07;;
12151;SDS011;6139;51.274;7.128;2023-08-07T04:12:38;7.60;;;4.00;;
12151;SDS011;6139;51.274;7.128;2023-08-07T04:13:39;8.43;;;4.28;;
12151;SDS011;6139;51.274;7.128;2023-08-07T04:14:42;10.70;;;4.82;;
12151;SDS011;6139;51.274;7.128;2023-08-07T04:15:43;7.53;;;4.47;;
12151;SDS011;6139;51.274;7.128;2023-08-07T04:16:45;7.93;;;4.55;;
12151;SDS011;6139;51.274;7.128;2023-08-07T04:17:47;9.30;;;4.50;;
12151;SDS011;6139;51.274;7.128;2023-08-07T04:18:49;9.45;;;4.90;;
12151;SDS011;6139;51.274;7.128;2023-08-07T04:19:51;8.35;;;4.80;;
12151;SDS011;6139;51.274;7.128;2023-08-07T04:20:54;12.52;;;4.75;;
12151;SDS011;6139;51.274;7.128;2023-08-07T04:21:56;8.52;;;4.93;;
12151;SDS011;6139;51.274;7.128;2023-08-07T04:22:58;10.98;;;4.50;;
12151;SDS011;6139;51.274;7.128;2023-08-07T04:23:59;9.68;;;4.60;;
12151;SDS011;6139;51.274;7.128;2023-08-07T04:25:01;9.13;;;5.53;;
12151;SDS011;6139;51.274;7.128;2023-08-07T04:26:02;6.57;;;4.78;;
12151;SDS011;6139;51.274;7.128;2023-08-07T04:27:05;12.55;;;5.03;;
12151;SDS011;6139;51.274;7.128;2023-08-07T04:28:07;8.13;;;4.85;;
12151;SDS011;6139;51.274;7.128;2023-08-07T04:29:09;8.57;;;4.40;;
12151;SDS011;6139;51.274;7.128;2023-08-07T04:30:11;11.27;;;5.00;;
12151;SDS011;6139;51.274;7.128;2023-08-07T04:31:12;9.43;;;5.03;;
12151;SDS011;6139;51.274;7.128;2023-08-07T04:32:14;8.25;;;4.20;;
12151;SDS011;6139;51.274;7.128;2023-08-07T04:33:15;6.45;;;4.30;;
12151;SDS011;6139;51.274;7.128;2023-08-07T04:34:17;10.98;;;4.88;;
12151;SDS011;6139;51.274;7.128;2023-08-07T04:35:19;9.65;;;4.40;;
12151;SDS011;6139;51.274;7.128;2023-08-07T04:36:21;10.20;;;4.75;;
12151;SDS011;6139;51.274;7.128;2023-08-07T04:37:22;7.75;;;4.55;;
12151;SDS011;6139;51.274;7.128;2023-08-07T04:38:24;6.25;;;3.97;;
12151;SDS011;6139;51.274;7.128;2023-08-07T04:39:25;10.93;;;4.45;;
12151;SDS011;6139;51.274;7.128;2023-08-07T04:40:28;11.57;;;4.07;;
12151;SDS011;6139;51.274;7.128;2023-08-07T04:41:29;8.88;;;3.80;;
12151;SDS011;6139;51.274;7.128;2023-08-07T04:42:31;7.55;;;4.22;;
12151;SDS011;6139;51.274;7.128;2023-08-07T04:43:34;15.45;;;4.30;;
12151;SDS011;6139;51.274;7.128;2023-08-07T04:44:36;7.10;;;3.65;;
12151;SDS011;6139;51.274;7.128;2023-08-07T04:45:37;7.13;;;4.13;;
12151;SDS011;6139;51.274;7.128;2023-08-07T04:46:39;7.32;;;3.90;;
12151;SDS011;6139;51.274;7.128;2023-08-07T04:47:41;6.30;;;3.17;;
12151;SDS011;6139;51.274;7.128;2023-08-07T04:48:43;6.68;;;3.20;;
12151;SDS011;6139;51.274;7.128;2023-08-07T04:49:44;8.00;;;3.67;;
12151;SDS011;6139;51.274;7.128;2023-08-07T04:50:46;10.02;;;3.92;;
12151;SDS011;6139;51.274;7.128;2023-08-07T04:51:47;7.72;;;3.72;;
12151;SDS011;6139;51.274;7.128;2023-08-07T04:52:49;8.25;;;4.13;;
12151;SDS011;6139;51.274;7.128;2023-08-07T04:53:52;10.50;;;4.20;;
12151;SDS011;6139;51.274;7.128;2023-08-07T04:54:56;10.50;;;4.20;;
12151;SDS011;6139;51.274;7.128;2023-08-07T04:55:58;9.80;;;4.40;;
12151;SDS011;6139;51.274;7.128;2023-08-07T04:57:00;11.70;;;4.53;;
12151;SDS011;6139;51.274;7.128;2023-08-07T04:58:01;9.60;;;4.13;;
12151;SDS011;6139;51.274;7.128;2023-08-07T04:59:05;7.60;;;4.20;;
12151;SDS011;6139;51.274;7.128;2023-08-07T05:00:06;8.32;;;4.50;;
12151;SDS011;6139;51.274;7.128;2023-08-07T05:01:09;7.30;;;3.80;;
12151;SDS011;6139;51.274;7.128;2023-08-07T05:02:10;6.13;;;3.53;;
12151;SDS011;6139;51.274;7.128;2023-08-07T05:03:12;10.30;;;4.47;;
12151;SDS011;6139;51.274;7.128;2023-08-07T05:04:15;6.40;;;4.00;;
12151;SDS011;6139;51.274;7.128;2023-08-07T05:05:17;12.20;;;4.35;;
12151;SDS011;6139;51.274;7.128;2023-08-07T05:06:20;7.85;;;3.78;;
12151;SDS011;6139;51.274;7.128;2023-08-07T05:07:21;13.10;;;4.30;;
12151;SDS011;6139;51.274;7.128;2023-08-07T05:08:23;10.65;;;3.85;;
12151;SDS011;6139;51.274;7.128;2023-08-07T05:09:24;6.97;;;4.60;;
12151;SDS011;6139;51.274;7.128;2023-08-07T05:10:27;10.13;;;4.57;;
12151;SDS011;6139;51.274;7.128;2023-08-07T05:11:28;8.93;;;4.38;;
12151;SDS011;6139;51.274;7.128;2023-08-07T05:12:29;11.32;;;4.55;;
12151;SDS011;6139;51.274;7.128;2023-08-07T05:13:30;9.82;;;4.10;;
12151;SDS011;6139;51.274;7.128;2023-08-07T05:14:34;10.55;;;4.25;;
12151;SDS011;6139;51.274;7.128;2023-08-07T05:15:35;9.05;;;4.18;;
12151;SDS011;6139;51.274;7.128;2023-08-07T05:16:37;9.70;;;4.38;;
12151;SDS011;6139;51.274;7.128;2023-08-07T05:17:40;12.13;;;3.90;;
12151;SDS011;6139;51.274;7.128;2023-08-07T05:18:42;7.82;;;3.65;;
12151;SDS011;6139;51.274;7.128;2023-08-07T05:19:43;6.10;;;3.65;;
12151;SDS011;6139;51.274;7.128;2023-08-07T05:20:45;9.77;;;4.28;;
12151;SDS011;6139;51.274;7.128;2023-08-07T05:21:46;8.05;;;3.47;;
12151;SDS011;6139;51.274;7.128;2023-08-07T05:22:50;5.30;;;3.67;;
12151;SDS011;6139;51.274;7.128;2023-08-07T05:23:51;6.82;;;3.60;;
12151;SDS011;6139;51.274;7.128;2023-08-07T05:24:55;8.85;;;3.65;;
12151;SDS011;6139;51.274;7.128;2023-08-07T05:25:56;8.80;;;3.97;;
12151;SDS011;6139;51.274;7.128;2023-08-07T05:26:58;7.47;;;3.60;;
12151;SDS011;6139;51.274;7.128;2023-08-07T05:27:59;6.22;;;3.72;;
12151;SDS011;6139;51.274;7.128;2023-08-07T05:29:03;8.63;;;3.80;;
12151;SDS011;6139;51.274;7.128;2023-08-07T05:30:06;6.60;;;3.45;;
12151;SDS011;6139;51.274;7.128;2023-08-07T05:31:11;9.10;;;3.40;;
12151;SDS011;6139;51.274;7.128;2023-08-07T05:32:12;7.70;;;3.95;;
12151;SDS011;6139;51.274;7.128;2023-08-07T05:33:15;9.93;;;3.38;;
12151;SDS011;6139;51.274;7.128;2023-08-07T05:34:16;8.18;;;3.70;;
12151;SDS011;6139;51.274;7.128;2023-08-07T05:35:18;3.78;;;3.05;;
12151;SDS011;6139;51.274;7.128;2023-08-07T05:36:19;6.72;;;3.72;;
12151;SDS011;6139;51.274;7.128;2023-08-07T05:37:21;11.48;;;3.72;;
12151;SDS011;6139;51.274;7.128;2023-08-07T05:38:22;8.38;;;3.55;;
12151;SDS011;6139;51.274;7.128;2023-08-07T05:39:24;6.63;;;3.33;;
12151;SDS011;6139;51.274;7.128;2023-08-07T05:40:28;4.35;;;3.28;;
12151;SDS011;6139;51.274;7.128;2023-08-07T05:41:30;7.22;;;3.97;;
12151;SDS011;6139;51.274;7.128;2023-08-07T05:42:33;11.10;;;3.92;;
12151;SDS011;6139;51.274;7.128;2023-08-07T05:43:35;6.80;;;3.55;;
12151;SDS011;6139;51.274;7.128;2023-08-07T05:44:36;6.60;;;4.32;;
12151;SDS011;6139;51.274;7.128;2023-08-07T05:45:40;8.30;;;3.38;;
12151;SDS011;6139;51.274;7.128;2023-08-07T05:46:43;5.60;;;3.30;;
12151;SDS011;6139;51.274;7.128;2023-08-07T05:47:45;7.35;;;3.72;;
12151;SDS011;6139;51.274;7.128;2023-08-07T05:48:46;6.65;;;3.22;;
12151;SDS011;6139;51.274;7.128;2023-08-07T05:49:48;5.95;;;3.47;;
12151;SDS011;6139;51.274;7.128;2023-08-07T05:50:49;5.85;;;3.58;;
12151;SDS011;6139;51.274;7.128;2023-08-07T05:51:52;6.28;;;3.20;;
12151;SDS011;6139;51.274;7.128;2023-08-07T05:52:53;9.90;;;3.80;;
12151;SDS011;6139;51.274;7.128;2023-08-07T05:53:55;7.18;;;3.88;;
12151;SDS011;6139;51.274;7.128;2023-08-07T05:54:56;9.48;;;3.70;;
12151;SDS011;6139;51.274;7.128;2023-08-07T05:55:58;6.47;;;3.90;;
12151;SDS011;6139;51.274;7.128;2023-08-07T05:56:59;8.20;;;4.45;;
12151;SDS011;6139;51.274;7.128;2023-08-07T05:58:01;7.95;;;3.65;;
12151;SDS011;6139;51.274;7.128;2023-08-07T05:59:02;7.93;;;3.35;;
12151;SDS011;6139;51.274;7.128;2023-08-07T06:00:05;9.40;;;4.28;;
12151;SDS011;6139;51.274;7.128;2023-08-07T06:01:15;7.45;;;3.28;;
12151;SDS011;6139;51.274;7.128;2023-08-07T06:02:17;6.55;;;3.33;;
12151;SDS011;6139;51.274;7.128;2023-08-07T06:03:19;5.78;;;3.20;;
12151;SDS011;6139;51.274;7.128;2023-08-07T06:04:21;7.68;;;3.47;;
12151;SDS011;6139;51.274;7.128;2023-08-07T06:05:22;5.53;;;2.90;;
12151;SDS011;6139;51.274;7.128;2023-08-07T06:06:24;5.80;;;3.17;;
12151;SDS011;6139;51.274;7.128;2023-08-07T06:07:25;6.40;;;3.22;;
12151;SDS011;6139;51.274;7.128;2023-08-07T06:08:27;7.78;;;3.05;;
12151;SDS011;6139;51.274;7.128;2023-08-07T06:09:29;6.65;;;3.15;;
12151;SDS011;6139;51.274;7.128;2023-08-07T06:10:31;3.70;;;2.90;;
12151;SDS011;6139;51.274;7.128;2023-08-07T06:11:32;4.20;;;2.70;;
12151;SDS011;6139;51.274;7.128;2023-08-07T06:12:34;5.30;;;2.67;;
12151;SDS011;6139;51.274;7.128;2023-08-07T06:13:35;6.40;;;2.95;;
12151;SDS011;6139;51.274;7.128;2023-08-07T06:14:37;5.60;;;2.67;;
12151;SDS011;6139;51.274;7.128;2023-08-07T06:15:38;5.63;;;2.80;;
12151;SDS011;6139;51.274;7.128;2023-08-07T06:16:41;5.80;;;3.33;;
12151;SDS011;6139;51.274;7.128;2023-08-07T06:17:42;4.25;;;2.60;;
12151;SDS011;6139;51.274;7.128;2023-08-07T06:18:44;6.03;;;2.63;;
12151;SDS011;6139;51.274;7.128;2023-08-07T06:19:46;3.92;;;2.75;;
12151;SDS011;6139;51.274;7.128;2023-08-07T06:20:48;5.88;;;3.25;;